Time;durP1;ratioP1;P1;durP2;ratioP2;P2;SDS_P1;SDS_P2;PMS_P1;PMS_P2;Temp;Humidity;BMP_temperature;BMP_pressure;BME280_temperature;BME280_humidity;BME280_pressure;Samples;Min_cycle;Max_cycle;Signal;HPM_P1;HPM_P2
2021/12/22 00:01:34;;;;;;;124.47;58.22;;;0.00;99.90;;;;;;5094347;28;20418;-78
2021/12/22 00:03:59;;;;;;;99.47;53.55;;;-0.10;99.90;;;;;;5075858;28;20497;-78
2021/12/22 00:06:26;;;;;;;99.22;54.42;;;-0.20;99.90;;;;;;5094172;28;20119;-78
2021/12/22 00:08:53;;;;;;;99.22;54.60;;;-0.10;99.90;;;;;;5094366;28;20053;-78
2021/12/22 00:11:19;;;;;;;107.07;56.65;;;0.00;99.90;;;;;;5094334;28;20042;-79
2021/12/22 00:13:45;;;;;;;123.35;59.83;;;0.00;99.90;;;;;;5094530;28;20042;-78
2021/12/22 00:16:11;;;;;;;119.07;57.25;;;-0.10;99.90;;;;;;5094169;28;20032;-79
2021/12/22 00:18:37;;;;;;;97.50;53.33;;;-0.10;99.90;;;;;;5093978;28;20051;-78
2021/12/22 00:21:04;;;;;;;112.10;57.20;;;-0.10;99.90;;;;;;5093871;28;20123;-78
2021/12/22 00:23:30;;;;;;;121.10;60.47;;;-0.10;99.90;;;;;;5094035;28;20044;-78
2021/12/22 00:25:57;;;;;;;100.28;54.20;;;-0.10;99.90;;;;;;5093662;28;20027;-78
2021/12/22 00:28:22;;;;;;;112.28;59.33;;;-0.10;99.90;;;;;;5075986;28;20075;-78
2021/12/22 00:30:50;;;;;;;93.97;51.88;;;-0.10;99.90;;;;;;5093770;28;20124;-78
2021/12/22 00:33:16;;;;;;;103.10;54.60;;;-0.20;99.90;;;;;;5093647;28;20500;-79
2021/12/22 00:35:45;;;;;;;111.38;56.83;;;-0.20;99.90;;;;;;5093889;28;20076;-78
2021/12/22 00:38:19;;;;;;;109.05;55.47;;;-0.20;99.90;;;;;;5094015;28;20054;-79
2021/12/22 00:40:46;;;;;;;93.35;49.97;;;-0.10;99.90;;;;;;5093917;28;20036;-79
2021/12/22 00:43:13;;;;;;;101.93;53.55;;;-0.20;99.90;;;;;;5093489;28;20032;-81
2021/12/22 00:45:39;;;;;;;97.43;53.22;;;-0.10;99.90;;;;;;5093331;28;20130;-80
2021/12/22 00:48:08;;;;;;;120.60;57.22;;;-0.10;99.90;;;;;;5093869;28;20036;-80
2021/12/22 00:50:35;;;;;;;120.18;56.20;;;-0.20;99.90;;;;;;5093886;28;20039;-79
2021/12/22 00:53:02;;;;;;;118.78;58.70;;;-0.10;99.90;;;;;;5093371;28;20058;-81
2021/12/22 00:55:28;;;;;;;123.63;63.60;;;-0.10;99.90;;;;;;5093368;28;20046;-81
2021/12/22 00:57:54;;;;;;;102.25;51.75;;;-0.20;99.90;;;;;;5075473;28;20055;-80
2021/12/22 01:00:22;;;;;;;109.95;55.42;;;-0.10;99.90;;;;;;5094348;28;20024;-80
2021/12/22 01:02:48;;;;;;;103.28;52.95;;;-0.10;99.90;;;;;;5093583;28;20511;-80
2021/12/22 01:05:16;;;;;;;96.43;50.03;;;-0.10;99.90;;;;;;5093372;28;20449;-80
2021/12/22 01:07:43;;;;;;;93.22;49.83;;;-0.10;99.90;;;;;;5093688;28;20040;-81
2021/12/22 01:10:11;;;;;;;93.70;50.00;;;-0.10;99.90;;;;;;5093435;28;20043;-81
2021/12/22 01:12:38;;;;;;;107.03;52.65;;;-0.10;99.90;;;;;;5093522;28;20503;-80
2021/12/22 01:15:06;;;;;;;110.35;49.80;;;-0.20;99.90;;;;;;5092327;28;20528;-80
2021/12/22 01:17:38;;;;;;;103.53;45.70;;;-0.30;99.90;;;;;;5093345;28;20101;-80
2021/12/22 01:20:17;;;;;;;103.50;49.30;;;-0.30;99.90;;;;;;5093377;28;20129;-79
2021/12/22 01:25:12;;;;;;;119.55;51.38;;;-0.30;99.90;;;;;;5093197;28;20040;-80
2021/12/22 01:27:41;;;;;;;112.38;55.17;;;-0.30;99.90;;;;;;5093050;28;20044;-79
2021/12/22 01:30:14;;;;;;;102.47;52.03;;;-0.30;99.90;;;;;;5093147;28;20067;-80
2021/12/22 01:32:41;;;;;;;120.40;61.40;;;-0.20;99.90;;;;;;5093151;28;20030;-79
2021/12/22 01:35:11;;;;;;;119.28;58.95;;;-0.20;99.90;;;;;;5093148;28;20479;-79
2021/12/22 01:37:37;;;;;;;103.80;50.40;;;-0.20;99.90;;;;;;5092769;28;20051;-79
2021/12/22 01:40:05;;;;;;;101.53;48.58;;;-0.20;99.90;;;;;;5092654;28;20119;-79
2021/12/22 01:42:34;;;;;;;96.43;47.47;;;-0.20;99.90;;;;;;5092993;28;20032;-78
2021/12/22 01:50:44;;;;;;;122.43;52.78;;;-0.30;99.90;;;;;;5092655;28;20086;-79
2021/12/22 01:53:22;;;;;;;123.55;51.20;;;-0.20;99.90;;;;;;5092965;28;20075;-79
2021/12/22 01:56:01;;;;;;;96.65;45.05;;;-0.20;99.90;;;;;;5092984;28;20036;-80
2021/12/22 01:58:38;;;;;;;89.15;43.70;;;-0.20;99.90;;;;;;5092918;28;20533;-79
2021/12/22 02:01:06;;;;;;;85.85;42.20;;;-0.10;99.90;;;;;;5092880;28;20110;-80
2021/12/22 02:03:32;;;;;;;92.45;43.00;;;-0.10;99.90;;;;;;5092747;28;20498;-79
2021/12/22 02:05:58;;;;;;;95.60;46.70;;;-0.10;99.90;;;;;;5092802;28;20073;-79
2021/12/22 02:08:24;;;;;;;102.53;48.08;;;0.00;99.90;;;;;;5092905;28;20043;-80
2021/12/22 02:10:50;;;;;;;103.15;49.17;;;0.00;99.90;;;;;;5092847;28;20073;-80
2021/12/22 02:13:27;;;;;;;86.90;43.80;;;0.10;99.90;;;;;;5092801;28;20032;-80
2021/12/22 02:15:53;;;;;;;97.57;46.55;;;0.10;99.90;;;;;;5092746;28;20040;-80
2021/12/22 02:18:20;;;;;;;87.90;43.53;;;0.00;99.90;;;;;;5092378;28;20131;-79
2021/12/22 02:20:48;;;;;;;96.15;47.08;;;0.00;99.90;;;;;;5089981;28;20681;-78
2021/12/22 02:23:14;;;;;;;91.47;44.42;;;0.00;99.90;;;;;;5078558;28;20444;-79
2021/12/22 02:25:48;;;;;;;103.10;47.58;;;-0.10;99.90;;;;;;5070144;28;20115;-80
2021/12/22 02:28:22;;;;;;;91.20;44.80;;;0.00;99.90;;;;;;5074139;28;20058;-79
2021/12/22 02:30:50;;;;;;;93.18;46.53;;;0.10;99.90;;;;;;5075961;28;20109;-80
2021/12/22 02:36:23;;;;;;;104.50;46.85;;;0.00;99.90;;;;;;5052588;28;20040;-79
2021/12/22 02:38:56;;;;;;;107.50;48.05;;;0.10;99.90;;;;;;5075974;28;20116;-80
2021/12/22 02:41:27;;;;;;;102.22;46.22;;;0.10;99.90;;;;;;5075937;28;20046;-79
2021/12/22 02:43:55;;;;;;;96.20;46.58;;;0.10;99.90;;;;;;5081820;28;20503;-79
2021/12/22 02:46:24;;;;;;;97.82;48.10;;;0.10;99.90;;;;;;5095954;28;20495;-79
2021/12/22 02:48:50;;;;;;;101.97;48.53;;;0.10;99.90;;;;;;5096011;28;20104;-79
2021/12/22 02:51:18;;;;;;;104.68;49.53;;;0.00;99.90;;;;;;5096014;28;20036;-79
2021/12/22 02:57:21;;;;;;;107.88;51.67;;;0.00;99.90;;;;;;5095912;28;20034;-79
2021/12/22 03:04:34;;;;;;;144.45;53.65;;;0.00;99.90;;;;;;5095887;28;20093;-79
2021/12/22 03:07:05;;;;;;;134.07;52.58;;;0.00;99.90;;;;;;5095783;28;20051;-79
2021/12/22 03:09:33;;;;;;;102.20;48.25;;;0.10;99.90;;;;;;5095756;28;20039;-79
2021/12/22 03:12:04;;;;;;;108.18;48.95;;;0.00;99.90;;;;;;5095404;28;20047;-79
2021/12/22 03:14:29;;;;;;;124.75;50.83;;;0.00;99.90;;;;;;5095759;28;20040;-79
2021/12/22 03:16:57;;;;;;;120.60;49.65;;;0.00;99.90;;;;;;5095502;28;20089;-80
2021/12/22 03:19:27;;;;;;;99.35;46.97;;;0.10;99.90;;;;;;5095596;28;20135;-79
2021/12/22 03:21:59;;;;;;;163.10;51.83;;;0.10;99.90;;;;;;5077411;28;20047;-79
2021/12/22 03:24:26;;;;;;;177.18;52.35;;;0.00;99.90;;;;;;5095092;28;20456;-79
2021/12/22 03:26:52;;;;;;;119.82;50.10;;;0.00;99.90;;;;;;5095254;28;20047;-79
2021/12/22 03:29:19;;;;;;;107.93;48.67;;;-0.10;99.90;;;;;;5095237;28;20151;-79
2021/12/22 03:31:47;;;;;;;124.13;47.95;;;-0.10;99.90;;;;;;5094998;28;20511;-79
2021/12/22 03:34:14;;;;;;;100.47;46.42;;;0.00;99.90;;;;;;5095129;28;20039;-79
2021/12/22 03:36:43;;;;;;;115.20;49.63;;;-0.10;99.90;;;;;;5094806;28;20086;-79
2021/12/22 03:39:12;;;;;;;102.60;46.33;;;0.00;99.90;;;;;;5076076;28;20047;-79
2021/12/22 03:41:39;;;;;;;99.40;45.63;;;0.00;99.90;;;;;;5094982;28;20032;-79
2021/12/22 03:44:06;;;;;;;100.18;45.33;;;0.10;99.90;;;;;;5095212;28;20130;-79
2021/12/22 03:46:32;;;;;;;111.40;45.28;;;0.10;99.90;;;;;;5095016;28;20044;-79
2021/12/22 03:48:58;;;;;;;111.93;45.92;;;0.10;99.90;;;;;;5094810;28;20459;-79
2021/12/22 03:51:26;;;;;;;108.38;45.63;;;0.00;99.90;;;;;;5094698;28;20064;-79
2021/12/22 03:53:52;;;;;;;120.15;48.20;;;0.00;99.90;;;;;;5094602;28;20180;-79
2021/12/22 03:56:18;;;;;;;97.38;44.58;;;0.10;99.90;;;;;;5094732;28;20073;-79
2021/12/22 03:58:44;;;;;;;110.68;45.35;;;0.00;99.90;;;;;;5094687;28;20419;-79
2021/12/22 04:01:10;;;;;;;96.47;44.58;;;0.00;99.90;;;;;;5094798;28;20047;-79
2021/12/22 04:03:37;;;;;;;104.25;45.35;;;0.10;99.90;;;;;;5094820;28;20039;-79
2021/12/22 04:06:04;;;;;;;101.18;44.17;;;0.20;99.90;;;;;;5094572;28;20035;-79
2021/12/22 04:08:30;;;;;;;160.20;48.47;;;0.10;99.90;;;;;;5094622;28;20044;-79
2021/12/22 04:10:56;;;;;;;170.52;50.67;;;0.00;99.90;;;;;;5094640;28;20055;-79
2021/12/22 04:13:22;;;;;;;103.93;46.35;;;0.10;99.90;;;;;;5094513;28;20024;-79
2021/12/22 04:15:48;;;;;;;101.60;44.90;;;0.20;99.90;;;;;;5094497;28;20047;-79
2021/12/22 04:18:14;;;;;;;93.32;42.90;;;0.20;99.90;;;;;;5093994;28;20051;-80
2021/12/22 04:20:40;;;;;;;107.18;43.67;;;0.20;99.90;;;;;;5094077;28;20055;-79
2021/12/22 04:23:07;;;;;;;118.25;45.00;;;0.10;99.90;;;;;;5094336;28;20063;-79
2021/12/22 04:25:35;;;;;;;145.52;43.63;;;0.10;99.90;;;;;;5094147;28;20122;-79
2021/12/22 04:28:09;;;;;;;89.43;41.17;;;0.10;99.90;;;;;;5094275;28;20040;-80
2021/12/22 04:30:37;;;;;;;92.97;43.42;;;0.10;99.90;;;;;;5094134;28;20032;-79
2021/12/22 04:33:04;;;;;;;118.07;42.47;;;0.20;99.90;;;;;;5094144;28;20598;-80
2021/12/22 04:35:30;;;;;;;94.90;41.08;;;0.20;99.90;;;;;;5094139;28;20036;-79
2021/12/22 04:37:56;;;;;;;166.35;46.97;;;0.20;99.90;;;;;;5093623;28;20056;-79
2021/12/22 04:40:22;;;;;;;146.35;42.35;;;0.20;99.90;;;;;;5093768;28;20036;-79
2021/12/22 04:42:48;;;;;;;84.65;41.05;;;0.20;99.90;;;;;;5093896;28;20069;-79
2021/12/22 04:45:15;;;;;;;113.53;41.92;;;0.20;99.90;;;;;;5093778;28;20039;-79
2021/12/22 04:47:42;;;;;;;106.05;42.42;;;0.10;99.90;;;;;;5093346;28;20554;-79
2021/12/22 04:50:14;;;;;;;103.88;38.85;;;0.00;99.90;;;;;;5092926;28;20043;-80
2021/12/22 04:52:53;;;;;;;81.40;38.10;;;0.00;99.90;;;;;;5093747;28;20043;-80
2021/12/22 04:55:20;;;;;;;81.97;37.03;;;0.00;99.90;;;;;;5093745;28;20055;-79
2021/12/22 04:57:45;;;;;;;89.82;39.15;;;0.00;99.90;;;;;;5093308;28;20146;-79
2021/12/22 05:00:13;;;;;;;82.65;37.10;;;0.00;99.90;;;;;;5093094;28;20137;-79
2021/12/22 05:02:39;;;;;;;82.43;37.80;;;0.00;99.90;;;;;;5093614;28;20097;-79
2021/12/22 05:05:06;;;;;;;73.50;36.17;;;0.00;99.90;;;;;;5093615;28;20060;-80
2021/12/22 05:07:32;;;;;;;82.60;35.67;;;0.00;99.90;;;;;;5093377;28;20093;-79
2021/12/22 05:09:57;;;;;;;69.82;34.20;;;0.10;99.90;;;;;;5093402;28;20024;-80
2021/12/22 05:12:23;;;;;;;75.00;34.70;;;0.20;99.90;;;;;;5093477;28;20043;-79
2021/12/22 05:14:50;;;;;;;86.72;38.53;;;0.20;99.90;;;;;;5093255;28;20111;-79
2021/12/22 05:17:25;;;;;;;88.65;38.88;;;0.20;99.90;;;;;;5093083;28;20102;-80
2021/12/22 05:19:50;;;;;;;98.03;38.92;;;0.20;99.90;;;;;;5092812;28;20119;-79
2021/12/22 05:22:16;;;;;;;87.32;39.97;;;0.10;99.90;;;;;;5093375;28;20074;-80
2021/12/22 05:24:43;;;;;;;82.18;38.25;;;0.10;99.90;;;;;;5093347;28;20040;-80
2021/12/22 05:27:11;;;;;;;70.60;35.65;;;0.10;99.90;;;;;;5093003;28;20402;-79
2021/12/22 05:29:38;;;;;;;66.07;31.55;;;0.20;99.90;;;;;;5093035;28;20048;-80
2021/12/22 05:32:05;;;;;;;122.75;36.95;;;0.10;99.90;;;;;;5093134;28;20040;-79
2021/12/22 05:34:31;;;;;;;69.53;34.47;;;0.10;99.90;;;;;;5092771;28;20055;-79
2021/12/22 05:36:57;;;;;;;83.72;37.58;;;0.20;99.90;;;;;;5092906;28;20036;-79
2021/12/22 05:39:22;;;;;;;79.80;36.42;;;0.20;99.90;;;;;;5092993;28;20055;-80
2021/12/22 05:41:48;;;;;;;73.72;34.70;;;0.20;99.90;;;;;;5092915;28;20040;-80
2021/12/22 05:44:14;;;;;;;80.75;36.63;;;0.20;99.90;;;;;;5087196;28;20075;-80
2021/12/22 05:46:40;;;;;;;81.50;37.20;;;0.20;99.90;;;;;;5070443;28;20068;-79
2021/12/22 05:49:06;;;;;;;99.00;37.53;;;0.10;99.90;;;;;;5071591;28;20037;-80
2021/12/22 05:51:34;;;;;;;77.57;35.45;;;0.10;99.90;;;;;;5071250;28;20043;-80
2021/12/22 05:54:00;;;;;;;89.20;37.65;;;0.10;99.90;;;;;;5072902;28;20560;-79
2021/12/22 05:56:27;;;;;;;147.02;41.72;;;0.10;99.90;;;;;;5072572;28;20044;-80
2021/12/22 05:58:53;;;;;;;89.22;38.83;;;0.20;99.90;;;;;;5072392;28;20123;-79
2021/12/22 06:01:19;;;;;;;105.05;39.50;;;0.20;99.90;;;;;;5072929;28;20041;-80
2021/12/22 06:03:45;;;;;;;99.32;41.13;;;0.20;99.90;;;;;;5076514;28;20098;-80
2021/12/22 06:06:11;;;;;;;88.47;36.75;;;0.20;99.90;;;;;;5076421;28;20040;-79
2021/12/22 06:08:37;;;;;;;84.53;38.85;;;0.10;99.90;;;;;;5076269;28;20033;-79
2021/12/22 06:11:03;;;;;;;82.78;37.35;;;0.20;99.90;;;;;;5076233;28;20044;-80
2021/12/22 06:13:29;;;;;;;90.40;39.35;;;0.10;99.90;;;;;;5076621;28;20111;-80
2021/12/22 06:15:55;;;;;;;88.65;38.78;;;0.00;99.90;;;;;;5076417;28;20127;-80
2021/12/22 06:18:21;;;;;;;109.95;40.97;;;0.10;99.90;;;;;;5076430;28;20048;-80
2021/12/22 06:20:47;;;;;;;108.03;41.38;;;0.10;99.90;;;;;;5076512;28;20040;-80
2021/12/22 06:23:13;;;;;;;86.97;38.25;;;0.10;99.90;;;;;;5075070;28;20071;-79
2021/12/22 06:25:39;;;;;;;98.57;40.28;;;0.10;99.90;;;;;;5086782;28;20125;-79
2021/12/22 06:28:05;;;;;;;102.32;42.10;;;0.00;99.90;;;;;;5078002;28;20049;-80
2021/12/22 06:30:31;;;;;;;469.40;61.40;;;0.20;99.90;;;;;;5074816;28;20592;-79
2021/12/22 06:32:57;;;;;;;159.82;42.20;;;0.20;99.90;;;;;;5076248;28;20071;-79
2021/12/22 06:35:23;;;;;;;94.03;40.30;;;0.30;99.90;;;;;;5076032;28;20044;-79
2021/12/22 06:37:50;;;;;;;105.97;40.45;;;0.10;99.90;;;;;;5075721;28;20055;-80
2021/12/22 06:40:16;;;;;;;111.63;40.33;;;0.10;99.90;;;;;;5075534;28;20040;-81
2021/12/22 06:42:43;;;;;;;90.75;39.97;;;0.10;99.90;;;;;;5076059;28;20032;-80
2021/12/22 06:45:10;;;;;;;93.80;38.90;;;0.10;99.90;;;;;;5075920;28;20056;-80
2021/12/22 06:47:36;;;;;;;220.38;44.45;;;0.10;99.90;;;;;;5075955;28;20086;-80
2021/12/22 06:50:04;;;;;;;94.40;38.92;;;0.20;99.90;;;;;;5075877;28;20040;-80
2021/12/22 06:52:30;;;;;;;97.55;37.00;;;0.20;99.90;;;;;;5075560;28;20046;-80
2021/12/22 06:54:55;;;;;;;192.30;45.28;;;0.20;99.90;;;;;;5075603;28;20052;-80
2021/12/22 06:57:22;;;;;;;78.32;35.67;;;0.20;99.90;;;;;;5075879;28;20124;-80
2021/12/22 06:59:48;;;;;;;96.32;38.88;;;0.00;99.90;;;;;;5095469;28;20032;-80
2021/12/22 07:02:14;;;;;;;106.60;39.78;;;0.20;99.90;;;;;;5096002;28;20123;-80
2021/12/22 07:04:40;;;;;;;84.57;36.83;;;0.20;99.90;;;;;;5095839;28;20398;-80
2021/12/22 07:07:06;;;;;;;84.90;37.30;;;0.20;99.90;;;;;;5095893;28;20043;-80
2021/12/22 07:09:32;;;;;;;77.82;34.83;;;0.10;99.90;;;;;;5095803;28;20563;-79
2021/12/22 07:11:58;;;;;;;85.72;37.33;;;0.00;99.90;;;;;;5095797;28;20093;-80
2021/12/22 07:14:24;;;;;;;115.30;36.80;;;0.10;99.90;;;;;;5094812;28;20036;-80
2021/12/22 07:16:50;;;;;;;124.43;38.63;;;0.10;99.90;;;;;;5095592;28;20418;-79
2021/12/22 07:19:16;;;;;;;104.43;37.25;;;0.10;99.90;;;;;;5095644;28;20047;-80
2021/12/22 07:21:41;;;;;;;113.53;38.33;;;0.10;99.90;;;;;;5095434;28;20036;-80
2021/12/22 07:24:07;;;;;;;66.53;32.33;;;0.10;99.90;;;;;;5095710;28;20035;-80
2021/12/22 07:26:33;;;;;;;78.18;34.40;;;0.00;99.90;;;;;;5096910;28;20036;-79
2021/12/22 07:28:59;;;;;;;81.55;34.80;;;0.10;99.90;;;;;;5096579;28;20054;-80
2021/12/22 07:31:26;;;;;;;73.95;33.72;;;0.20;99.90;;;;;;5095643;28;20441;-80
2021/12/22 07:34:16;;;;;;;101.75;36.25;;;0.20;99.90;;;;;;5095334;28;20380;-80
2021/12/22 07:36:49;;;;;;;79.43;35.23;;;0.20;99.90;;;;;;5094431;28;20147;-80
2021/12/22 07:39:15;;;;;;;71.32;33.22;;;0.30;99.90;;;;;;5095285;28;20274;-80
2021/12/22 07:41:41;;;;;;;88.22;35.53;;;0.10;99.90;;;;;;5095471;28;20032;-81
2021/12/22 07:44:07;;;;;;;67.13;32.53;;;0.10;99.90;;;;;;5094952;28;20054;-81
2021/12/22 07:46:33;;;;;;;162.80;85.30;;;0.10;99.90;;;;;;5091393;28;20036;-80
2021/12/22 07:48:58;;;;;;;103.05;52.47;;;0.20;99.90;;;;;;5085585;28;20468;-79
2021/12/22 07:51:24;;;;;;;91.38;38.00;;;0.20;99.90;;;;;;5094754;28;20437;-79
2021/12/22 07:53:50;;;;;;;76.65;35.70;;;0.20;99.90;;;;;;5095038;28;20036;-80
2021/12/22 07:56:16;;;;;;;340.75;157.13;;;0.30;99.90;;;;;;5094551;28;20066;-80
2021/12/22 07:58:42;;;;;;;272.63;115.63;;;0.40;99.90;;;;;;5094312;28;20091;-80
2021/12/22 08:01:08;;;;;;;216.75;51.78;;;0.40;99.90;;;;;;5082843;28;20044;-79
2021/12/22 08:03:34;;;;;;;87.65;36.75;;;0.40;99.90;;;;;;5088378;28;20047;-79
2021/12/22 08:05:59;;;;;;;73.85;36.28;;;0.40;99.90;;;;;;5083231;28;20158;-80
2021/12/22 08:08:25;;;;;;;75.93;33.83;;;0.40;99.90;;;;;;5072627;28;20398;-80
2021/12/22 08:10:51;;;;;;;73.38;34.20;;;0.30;99.90;;;;;;5072190;28;20032;-80
2021/12/22 08:13:19;;;;;;;76.10;34.58;;;0.30;99.90;;;;;;5077396;28;20075;-80
2021/12/22 08:15:45;;;;;;;77.78;33.05;;;0.30;99.90;;;;;;5091982;28;20460;-81
2021/12/22 08:18:11;;;;;;;81.00;34.33;;;0.30;99.90;;;;;;5090796;28;20094;-79
2021/12/22 08:20:37;;;;;;;94.45;36.80;;;0.30;99.90;;;;;;5091729;28;20032;-80
2021/12/22 08:23:03;;;;;;;118.20;38.22;;;0.30;99.90;;;;;;5092422;28;20039;-81
2021/12/22 08:25:29;;;;;;;94.70;47.42;;;0.30;99.90;;;;;;5091827;28;20036;-80
2021/12/22 08:27:54;;;;;;;99.07;39.28;;;0.30;99.90;;;;;;5092249;28;20093;-81
2021/12/22 08:30:20;;;;;;;125.40;40.75;;;0.30;99.90;;;;;;5091466;28;20056;-80
2021/12/22 08:32:46;;;;;;;118.30;41.03;;;0.30;99.90;;;;;;5090872;28;20058;-81
2021/12/22 08:35:15;;;;;;;92.63;38.58;;;0.30;99.90;;;;;;5092996;28;20032;-81
2021/12/22 08:40:26;;;;;;;98.57;38.83;;;0.30;99.90;;;;;;5093003;28;20105;-80
2021/12/22 08:42:52;;;;;;;115.45;41.22;;;0.30;99.90;;;;;;5093853;28;20083;-80
2021/12/22 08:45:19;;;;;;;83.80;36.42;;;0.40;99.90;;;;;;5092886;28;20065;-83
2021/12/22 08:47:46;;;;;;;94.50;40.17;;;0.40;99.90;;;;;;5079234;28;20036;-80
2021/12/22 08:50:15;;;;;;;96.10;40.05;;;0.40;99.90;;;;;;5073636;28;20637;-78
2021/12/22 08:52:41;;;;;;;96.25;39.40;;;0.40;99.90;;;;;;5091403;28;20044;-80
2021/12/22 08:55:08;;;;;;;85.28;36.85;;;0.40;99.90;;;;;;5063979;28;20044;-77
2021/12/22 08:57:34;;;;;;;89.93;38.00;;;0.50;99.90;;;;;;5084653;28;20587;-80
2021/12/22 09:00:03;;;;;;;76.18;35.92;;;0.50;99.90;;;;;;5071821;28;20048;-81
2021/12/22 09:02:29;;;;;;;83.10;36.92;;;0.50;99.90;;;;;;5060847;28;20497;-78
2021/12/22 09:04:56;;;;;;;78.63;37.95;;;0.50;99.90;;;;;;5079547;28;20090;-79
2021/12/22 09:07:22;;;;;;;113.07;41.22;;;0.50;99.90;;;;;;5065185;28;20067;-78
2021/12/22 09:09:47;;;;;;;98.10;40.28;;;0.50;99.90;;;;;;5086463;28;20097;-78
2021/12/22 09:12:14;;;;;;;82.45;37.75;;;0.60;99.90;;;;;;5079527;28;21237;-81
2021/12/22 09:14:40;;;;;;;90.65;40.67;;;0.60;99.90;;;;;;5084446;28;20048;-79
2021/12/22 09:17:06;;;;;;;95.55;41.83;;;0.70;99.90;;;;;;5086313;28;20040;-77
2021/12/22 09:19:32;;;;;;;81.35;39.03;;;0.70;99.90;;;;;;5083474;28;20040;-80
2021/12/22 09:21:58;;;;;;;76.30;37.63;;;0.70;99.90;;;;;;5084858;28;20039;-81
2021/12/22 09:24:24;;;;;;;84.55;39.25;;;0.60;99.90;;;;;;5071259;28;20040;-79
2021/12/22 09:26:50;;;;;;;88.05;39.20;;;0.60;99.90;;;;;;5091112;28;20040;-81
2021/12/22 09:29:15;;;;;;;85.72;39.20;;;0.60;99.90;;;;;;5090738;28;20526;-81
2021/12/22 09:31:41;;;;;;;75.35;37.40;;;0.60;99.90;;;;;;5091510;28;20515;-78
2021/12/22 09:34:08;;;;;;;75.00;38.53;;;0.60;99.90;;;;;;5092142;28;20044;-78
2021/12/22 09:36:34;;;;;;;72.38;36.20;;;0.50;99.90;;;;;;5090619;28;20032;-82
2021/12/22 09:39:00;;;;;;;84.45;41.33;;;0.80;99.90;;;;;;5090533;28;20051;-82
2021/12/22 09:41:26;;;;;;;74.63;38.10;;;0.80;99.90;;;;;;5090500;28;20040;-77
2021/12/22 09:43:55;;;;;;;76.68;38.50;;;0.90;99.90;;;;;;5091085;28;20393;-78
2021/12/22 09:46:23;;;;;;;79.45;41.38;;;1.00;99.90;;;;;;5090810;28;20039;-80
2021/12/22 09:48:52;;;;;;;78.95;38.47;;;1.00;99.90;;;;;;5071776;28;20388;-79
2021/12/22 09:53:50;;;;;;;79.20;37.80;;;0.90;99.90;;;;;;5091316;28;20449;-78
2021/12/22 09:56:22;;;;;;;89.32;40.50;;;0.90;99.90;;;;;;5091291;28;20032;-81
2021/12/22 09:58:49;;;;;;;71.15;38.95;;;0.90;99.90;;;;;;5090826;28;20124;-77
2021/12/22 10:01:22;;;;;;;68.13;34.35;;;0.90;99.90;;;;;;5091394;28;20490;-81
2021/12/22 10:03:58;;;;;;;79.45;41.25;;;0.90;99.90;;;;;;5092034;28;20056;-82
2021/12/22 10:06:25;;;;;;;76.03;39.67;;;1.00;99.90;;;;;;5084162;28;20084;-79
2021/12/22 10:09:03;;;;;;;80.97;40.08;;;1.10;99.90;;;;;;5089541;28;20399;-82
2021/12/22 10:11:34;;;;;;;74.28;40.05;;;1.20;99.90;;;;;;5090568;28;20622;-81
2021/12/22 10:13:59;;;;;;;;;;;1.20;99.90;;;;;;5091033;28;20047;-80
2021/12/22 10:16:27;;;;;;;65.72;34.85;;;1.20;99.90;;;;;;5090795;28;19908;-82
2021/12/22 10:19:08;;;;;;;68.65;35.88;;;1.10;99.90;;;;;;5090163;28;20059;-77
2021/12/22 10:21:37;;;;;;;70.93;38.70;;;1.20;99.90;;;;;;5090897;28;20047;-81
2021/12/22 10:24:06;;;;;;;67.90;36.45;;;1.30;99.90;;;;;;5091705;28;20096;-82
2021/12/22 10:26:32;;;;;;;74.22;39.03;;;1.30;99.90;;;;;;5091080;28;20040;-82
2021/12/22 10:29:03;;;;;;;66.20;35.67;;;1.30;99.90;;;;;;5090858;28;20051;-82
2021/12/22 10:31:38;;;;;;;71.20;37.40;;;1.30;99.90;;;;;;5090662;28;20097;-78
2021/12/22 10:34:10;;;;;;;66.45;36.72;;;1.30;99.90;;;;;;5090446;28;20085;-78
2021/12/22 10:36:50;;;;;;;80.30;40.92;;;1.30;99.90;;;;;;5090544;28;20059;-79
2021/12/22 10:39:24;;;;;;;77.03;40.20;;;1.40;99.90;;;;;;5091076;28;20047;-82
2021/12/22 10:41:51;;;;;;;89.07;45.42;;;1.40;99.90;;;;;;5090654;28;20063;-79
2021/12/22 10:44:18;;;;;;;77.25;41.83;;;1.40;99.90;;;;;;5090595;28;20040;-82
2021/12/22 10:46:43;;;;;;;80.72;42.20;;;1.50;99.90;;;;;;5090633;28;20393;-82
2021/12/22 10:49:21;;;;;;;73.18;39.08;;;1.60;99.90;;;;;;5092369;28;20122;-77
2021/12/22 10:51:53;;;;;;;71.88;38.20;;;1.80;99.90;;;;;;5094484;28;20039;-81
2021/12/22 10:54:19;;;;;;;69.38;38.17;;;1.80;99.90;;;;;;5094108;28;20048;-82
2021/12/22 10:56:46;;;;;;;72.35;38.28;;;1.80;99.90;;;;;;5094356;28;20101;-80
2021/12/22 10:59:17;;;;;;;69.45;36.90;;;1.90;99.90;;;;;;5094019;28;20403;-80
2021/12/22 11:01:52;;;;;;;;;;;2.00;99.90;;;;;;5094105;28;20054;-81
2021/12/22 11:04:23;;;;;;;69.07;35.90;;;1.90;99.90;;;;;;5093256;28;19907;-78
2021/12/22 11:06:51;;;;;;;72.72;37.83;;;2.00;99.90;;;;;;5093237;28;20151;-79
2021/12/22 11:09:18;;;;;;;71.25;36.20;;;2.10;99.90;;;;;;5094209;28;20110;-81
2021/12/22 11:11:54;;;;;;;63.30;35.40;;;2.10;99.90;;;;;;5094131;28;20044;-82
2021/12/22 11:14:24;;;;;;;69.68;36.90;;;2.00;99.90;;;;;;5093698;28;20131;-79
2021/12/22 11:16:50;;;;;;;74.28;35.35;;;2.00;99.90;;;;;;5093160;28;20083;-78
2021/12/22 11:19:16;;;;;;;68.72;36.47;;;2.00;99.90;;;;;;5093748;28;20486;-80
2021/12/22 11:22:05;;;;;;;65.78;37.33;;;2.00;99.90;;;;;;5093449;28;20039;-81
2021/12/22 11:24:34;;;;;;;73.32;40.25;;;2.10;99.90;;;;;;5093421;28;20134;-81
2021/12/22 11:27:00;;;;;;;67.25;38.22;;;2.00;99.90;;;;;;5093436;28;20044;-81
2021/12/22 11:29:27;;;;;;;75.50;38.60;;;2.10;99.90;;;;;;5093341;28;20044;-78
2021/12/22 11:31:54;;;;;;;69.72;39.05;;;2.30;99.90;;;;;;5094185;28;20444;-78
2021/12/22 11:34:21;;;;;;;61.75;36.22;;;2.40;99.90;;;;;;5092499;28;20036;-80
2021/12/22 11:36:49;;;;;;;64.30;37.08;;;2.40;99.90;;;;;;5093547;28;20127;-81
2021/12/22 11:39:15;;;;;;;69.72;39.85;;;2.90;99.90;;;;;;5093554;28;20070;-82
2021/12/22 11:41:54;;;;;;;71.15;40.90;;;2.90;99.90;;;;;;5093365;28;20043;-80
2021/12/22 11:44:23;;;;;;;62.47;38.20;;;2.80;99.90;;;;;;5093559;28;20048;-81
2021/12/22 11:46:52;;;;;;;62.83;37.80;;;2.90;99.90;;;;;;5094372;28;20508;-81
2021/12/22 11:49:20;;;;;;;58.85;37.30;;;2.90;99.90;;;;;;5094577;28;20040;-78
2021/12/22 11:51:45;;;;;;;62.55;38.53;;;2.50;99.90;;;;;;5093255;28;20086;-81
2021/12/22 11:54:12;;;;;;;62.05;39.03;;;2.40;99.90;;;;;;5093824;28;20060;-81
2021/12/22 11:56:48;;;;;;;70.97;40.50;;;2.30;99.90;;;;;;5094299;28;20073;-80
2021/12/22 11:59:33;;;;;;;70.43;42.38;;;2.30;99.90;;;;;;5094106;28;20039;-79
2021/12/22 12:02:21;;;;;;;74.32;40.70;;;2.10;99.90;;;;;;5094163;28;20040;-81
2021/12/22 12:04:53;;;;;;;75.82;41.60;;;1.90;99.90;;;;;;5094813;28;20040;-81
2021/12/22 12:07:56;;;;;;;69.63;40.55;;;1.80;99.90;;;;;;5092737;28;20073;-80
2021/12/22 12:10:48;;;;;;;71.60;38.88;;;1.80;99.90;;;;;;5092417;28;20395;-82
2021/12/22 12:13:26;;;;;;;71.72;41.47;;;2.00;99.90;;;;;;5093011;28;20035;-81
2021/12/22 12:21:55;;;;;;;71.88;42.75;;;2.30;99.90;;;;;;5092044;28;20035;-81
2021/12/22 12:24:48;;;;;;;69.85;42.00;;;2.40;99.90;;;;;;5091893;28;20024;-82
2021/12/22 12:27:36;;;;;;;75.85;43.58;;;2.80;99.90;;;;;;5072985;28;20044;-80
2021/12/22 12:30:10;;;;;;;68.63;41.92;;;2.90;99.90;;;;;;5092332;28;20042;-80
2021/12/22 12:32:39;;;;;;;68.22;40.65;;;2.90;99.90;;;;;;5092267;28;20040;-80
2021/12/22 12:35:23;;;;;;;69.78;41.55;;;2.90;99.90;;;;;;5092324;28;20040;-80
2021/12/22 12:37:58;;;;;;;74.35;42.03;;;3.20;99.90;;;;;;5090727;28;20054;-79
2021/12/22 12:40:44;;;;;;;69.55;39.80;;;2.80;99.90;;;;;;5093450;28;20036;-80
2021/12/22 12:43:10;;;;;;;74.65;45.17;;;3.10;99.90;;;;;;5092034;28;20475;-80
2021/12/22 12:45:46;;;;;;;70.70;41.00;;;3.00;99.90;;;;;;5091876;28;20110;-81
2021/12/22 12:48:25;;;;;;;73.25;44.22;;;2.90;99.90;;;;;;5091873;28;20042;-80
2021/12/22 12:51:19;;;;;;;64.43;39.42;;;2.70;99.90;;;;;;5091460;28;20042;-80
2021/12/22 12:53:49;;;;;;;68.53;40.22;;;2.90;99.90;;;;;;5092540;28;20064;-81
2021/12/22 12:56:17;;;;;;;70.85;37.58;;;3.40;99.90;;;;;;5092685;28;20044;-78
2021/12/22 12:59:00;;;;;;;71.72;41.75;;;3.40;99.90;;;;;;5086385;28;20052;-79
2021/12/22 13:01:47;;;;;;;69.60;42.55;;;3.70;99.90;;;;;;5083028;28;20039;-77
2021/12/22 13:04:23;;;;;;;74.65;44.80;;;3.90;99.90;;;;;;5078019;28;20037;-76
2021/12/22 13:07:03;;;;;;;69.47;43.15;;;3.80;99.90;;;;;;5072276;28;20055;-76
2021/12/22 13:09:30;;;;;;;64.93;39.63;;;3.90;99.90;;;;;;5071185;28;20033;-77
2021/12/22 13:17:46;;;;;;;58.75;35.33;;;4.20;99.90;;;;;;5070328;28;20458;-77